createdAt,value
2018-04-19T00:00:49.307Z,36.33
2018-04-19T00:01:49.321Z,36.15
2018-04-19T00:02:49.333Z,36.15
2018-04-19T00:03:49.352Z,36.91
2018-04-19T00:04:49.362Z,36.72
2018-04-19T00:05:49.376Z,35.96
2018-04-19T00:06:49.388Z,35.10
2018-04-19T00:07:49.403Z,35.00
2018-04-19T00:08:49.417Z,35.58
2018-04-19T00:09:49.430Z,35.86
2018-04-19T00:10:49.445Z,36.53
2018-04-19T00:11:49.475Z,35.67
2018-04-19T00:12:49.473Z,35.38
2018-04-19T00:13:49.485Z,36.05
2018-04-19T00:14:49.497Z,36.05
2018-04-19T00:15:49.512Z,35.86
2018-04-19T00:16:49.524Z,35.77
2018-04-19T00:17:49.542Z,36.15
2018-04-19T00:18:49.551Z,35.48
2018-04-19T00:19:49.564Z,36.24
2018-04-19T00:20:49.579Z,36.33
2018-04-19T00:21:49.592Z,35.67
2018-04-19T00:22:49.605Z,34.81
2018-04-19T00:23:49.619Z,35.67
2018-04-19T00:24:49.634Z,35.86
2018-04-19T00:25:49.646Z,35.86
2018-04-19T00:26:49.660Z,35.19
2018-04-19T00:27:49.674Z,36.05
2018-04-19T00:28:49.687Z,36.24
2018-04-19T00:29:49.700Z,36.91
2018-04-19T00:30:49.714Z,36.91
2018-04-19T00:31:49.725Z,37.19
2018-04-19T00:32:49.743Z,37.19
2018-04-19T00:33:49.754Z,36.91
2018-04-19T00:34:49.771Z,36.24
2018-04-19T00:35:49.782Z,36.15
2018-04-19T00:36:49.796Z,35.58
2018-04-19T00:37:49.810Z,34.91
2018-04-19T00:38:49.822Z,34.91
2018-04-19T00:39:49.839Z,35.00
2018-04-19T00:40:49.850Z,35.10
2018-04-19T00:41:49.863Z,35.67
2018-04-19T00:42:49.876Z,36.05
2018-04-19T00:43:49.892Z,36.15
2018-04-19T00:44:49.909Z,36.43
2018-04-19T00:45:49.918Z,35.86
2018-04-19T00:46:49.961Z,36.24
2018-04-19T00:47:49.947Z,36.33
2018-04-19T00:48:49.961Z,36.15
2018-04-19T00:49:49.971Z,36.72
2018-04-19T00:50:49.985Z,37.00
2018-04-19T00:51:50.001Z,36.53
2018-04-19T00:52:50.013Z,36.72
2018-04-19T00:53:50.023Z,36.91
2018-04-19T00:54:50.040Z,36.70
2018-04-19T00:55:50.050Z,37.00
2018-04-19T00:56:50.064Z,36.72
2018-04-19T00:57:50.077Z,36.51
2018-04-19T00:58:50.091Z,36.91
2018-04-19T00:59:50.105Z,36.70
2018-04-19T01:00:50.120Z,37.10
2018-04-19T01:01:50.131Z,37.27
2018-04-19T01:02:50.144Z,36.89
2018-04-19T01:03:50.158Z,36.15
2018-04-19T01:04:50.171Z,36.13
2018-04-19T01:05:50.185Z,36.22
2018-04-19T01:06:50.197Z,36.24
2018-04-19T01:07:50.210Z,36.15
2018-04-19T01:08:50.224Z,35.77
2018-04-19T01:09:50.237Z,35.96
2018-04-19T01:10:50.253Z,36.79
2018-04-19T01:11:50.265Z,37.18
2018-04-19T01:12:50.278Z,36.89
2018-04-19T01:13:50.296Z,36.70
2018-04-19T01:14:50.305Z,37.46
2018-04-19T01:15:50.317Z,37.65
2018-04-19T01:16:50.331Z,37.84
2018-04-19T01:17:50.344Z,37.18
2018-04-19T01:18:50.358Z,37.37
2018-04-19T01:19:50.371Z,37.37
2018-04-19T01:20:50.386Z,37.74
2018-04-19T01:21:50.397Z,37.93
2018-04-19T01:22:50.409Z,37.84
2018-04-19T01:23:50.425Z,38.03
2018-04-19T01:24:50.437Z,37.93
2018-04-19T01:25:50.451Z,37.93
2018-04-19T01:26:50.463Z,38.12
2018-04-19T01:27:50.479Z,38.22
2018-04-19T01:28:50.491Z,38.31
2018-04-19T01:29:50.502Z,38.51
2018-04-19T01:30:50.517Z,37.93
2018-04-19T01:31:50.531Z,38.31
2018-04-19T01:32:50.543Z,37.93
2018-04-19T01:33:50.555Z,38.22
2018-04-19T01:34:50.569Z,37.55
2018-04-19T01:35:50.583Z,37.84
2018-04-19T01:36:50.595Z,37.74
2018-04-19T01:37:50.608Z,38.03
2018-04-19T01:38:50.622Z,38.03
2018-04-19T01:39:50.635Z,38.12
2018-04-19T01:40:50.647Z,38.98
2018-04-19T01:41:50.661Z,38.51
2018-04-19T01:42:50.672Z,38.89
2018-04-19T01:43:50.686Z,38.98
2018-04-19T01:44:50.699Z,38.12
2018-04-19T01:45:50.712Z,38.41
2018-04-19T01:46:50.728Z,38.51
2018-04-19T01:47:50.740Z,38.41
2018-04-19T01:48:50.755Z,38.98
2018-04-19T01:49:50.765Z,38.79
2018-04-19T01:50:50.776Z,38.89
2018-04-19T01:51:50.789Z,39.17
2018-04-19T01:52:50.804Z,39.17
2018-04-19T01:53:50.814Z,39.36
2018-04-19T01:54:50.825Z,39.26
2018-04-19T01:55:50.840Z,38.98
2018-04-19T01:56:50.854Z,39.07
2018-04-19T01:57:50.864Z,39.07
2018-04-19T01:58:50.880Z,39.17
2018-04-19T01:59:50.891Z,39.26
2018-04-19T02:00:50.903Z,39.17
2018-04-19T02:01:50.923Z,38.60
2018-04-19T02:02:50.940Z,38.79
2018-04-19T02:03:50.942Z,38.70
2018-04-19T02:04:50.958Z,38.60
2018-04-19T02:05:50.968Z,38.70
2018-04-19T02:06:50.981Z,38.98
2018-04-19T02:07:50.993Z,38.70
2018-04-19T02:08:51.006Z,38.60
2018-04-19T02:09:51.019Z,38.60
2018-04-19T02:10:51.031Z,38.60
2018-04-19T02:11:51.043Z,38.70
2018-04-19T02:12:51.058Z,39.07
2018-04-19T02:13:51.068Z,38.98
2018-04-19T02:14:51.081Z,39.07
2018-04-19T02:15:51.094Z,39.07
2018-04-19T02:16:51.108Z,39.17
2018-04-19T02:17:51.120Z,39.17
2018-04-19T02:18:51.130Z,39.07
2018-04-19T02:19:51.143Z,38.89
2018-04-19T02:20:51.158Z,39.17
2018-04-19T02:21:51.170Z,39.45
2018-04-19T02:22:51.183Z,39.45
2018-04-19T02:23:51.194Z,39.45
2018-04-19T02:24:51.209Z,39.45
2018-04-19T02:25:51.219Z,39.45
2018-04-19T02:26:51.234Z,39.45
2018-04-19T02:27:51.246Z,39.55
2018-04-19T02:28:51.263Z,39.17
2018-04-19T02:29:51.271Z,39.07
2018-04-19T02:30:51.282Z,39.06
2018-04-19T02:31:51.294Z,39.17
2018-04-19T02:32:51.307Z,39.17
2018-04-19T02:33:51.320Z,39.17
2018-04-19T02:34:51.337Z,38.41
2018-04-19T02:35:51.346Z,39.07
2018-04-19T02:36:51.358Z,39.07
2018-04-19T02:37:51.371Z,39.07
2018-04-19T02:38:51.399Z,39.07
2018-04-19T02:39:51.396Z,38.98
2018-04-19T02:40:51.409Z,39.17
2018-04-19T02:41:51.422Z,39.07
2018-04-19T02:42:51.434Z,39.17
2018-04-19T02:43:51.454Z,38.98
2018-04-19T02:44:51.461Z,39.07
2018-04-19T02:45:51.471Z,39.26
2018-04-19T02:46:51.486Z,39.07
2018-04-19T02:47:51.497Z,38.98
2018-04-19T02:48:51.510Z,38.41
2018-04-19T02:49:51.523Z,37.65
2018-04-19T02:50:51.541Z,37.93
2018-04-19T02:51:51.547Z,37.93
2018-04-19T02:52:51.562Z,37.93
2018-04-19T02:53:51.572Z,38.12
2018-04-19T02:54:51.585Z,38.60
2018-04-19T02:55:51.597Z,39.07
2018-04-19T02:56:51.615Z,39.17
2018-04-19T02:57:51.620Z,38.98
2018-04-19T02:58:51.639Z,39.17
2018-04-19T02:59:51.645Z,39.43
2018-04-19T03:00:51.666Z,39.81
2018-04-19T03:01:51.672Z,39.93
2018-04-19T03:02:51.686Z,39.81
2018-04-19T03:03:51.699Z,39.72
2018-04-19T03:04:51.712Z,39.81
2018-04-19T03:05:51.725Z,39.43
2018-04-19T03:06:51.737Z,39.43
2018-04-19T03:07:51.749Z,39.43
2018-04-19T03:08:51.762Z,39.72
2018-04-19T03:09:51.776Z,39.81
2018-04-19T03:10:51.786Z,39.72
2018-04-19T03:11:51.799Z,39.72
2018-04-19T03:12:51.811Z,39.72
2018-04-19T03:13:51.823Z,39.53
2018-04-19T03:14:51.836Z,39.34
2018-04-19T03:15:51.848Z,39.72
2018-04-19T03:16:51.865Z,39.81
2018-04-19T03:17:51.875Z,39.53
2018-04-19T03:18:51.886Z,38.77
2018-04-19T03:19:51.901Z,38.58
2018-04-19T03:20:51.912Z,38.58
2018-04-19T03:21:51.925Z,38.58
2018-04-19T03:22:51.935Z,38.68
2018-04-19T03:23:51.949Z,39.25
2018-04-19T03:24:51.963Z,39.15
2018-04-19T03:25:51.973Z,38.58
2018-04-19T03:26:51.997Z,38.87
2018-04-19T03:27:51.999Z,38.58
2018-04-19T03:28:52.016Z,38.29
2018-04-19T03:29:52.031Z,38.87
2018-04-19T03:30:52.039Z,38.77
2018-04-19T03:31:52.050Z,39.06
2018-04-19T03:32:52.061Z,38.77
2018-04-19T03:33:52.075Z,39.15
2018-04-19T03:34:52.086Z,38.96
2018-04-19T03:35:52.100Z,39.25
2018-04-19T03:36:52.113Z,39.25
2018-04-19T03:37:52.122Z,39.43
2018-04-19T03:38:52.137Z,38.96
2018-04-19T03:39:52.147Z,39.15
2018-04-19T03:40:52.162Z,39.15
2018-04-19T03:41:52.172Z,38.58
2018-04-19T03:42:52.185Z,38.77
2018-04-19T03:43:52.195Z,38.58
2018-04-19T03:44:52.208Z,39.15
2018-04-19T03:45:52.219Z,39.15
2018-04-19T03:46:52.241Z,38.96
2018-04-19T03:47:52.244Z,39.15
2018-04-19T03:48:52.258Z,38.96
2018-04-19T03:49:52.269Z,38.96
2018-04-19T03:50:52.282Z,38.87
2018-04-19T03:51:52.292Z,39.15
2018-04-19T03:52:52.305Z,38.96
2018-04-19T03:53:52.320Z,39.15
2018-04-19T03:54:52.335Z,39.15
2018-04-19T03:55:52.342Z,39.15
2018-04-19T03:56:52.355Z,39.34
2018-04-19T03:57:52.366Z,39.91
2018-04-19T03:58:52.380Z,40.29
2018-04-19T03:59:52.390Z,39.81
2018-04-19T04:00:52.401Z,40.01
2018-04-19T04:01:52.415Z,40.27
2018-04-19T04:02:52.427Z,39.81
2018-04-19T04:03:52.439Z,40.17
2018-04-19T04:04:52.452Z,40.39
2018-04-19T04:05:52.464Z,40.39
2018-04-19T04:06:52.480Z,40.17
2018-04-19T04:07:52.488Z,39.72
2018-04-19T04:08:52.516Z,39.62
2018-04-19T04:09:52.510Z,39.81
2018-04-19T04:10:52.523Z,39.72
2018-04-19T04:11:52.534Z,39.34
2018-04-19T04:12:52.547Z,39.53
2018-04-19T04:13:52.559Z,39.25
2018-04-19T04:14:52.571Z,39.04
2018-04-19T04:15:52.582Z,39.13
2018-04-19T04:16:52.595Z,39.06
2018-04-19T04:17:52.611Z,39.15
2018-04-19T04:18:52.619Z,39.15
2018-04-19T04:19:52.632Z,38.48
2018-04-19T04:20:52.646Z,38.58
2018-04-19T04:21:52.655Z,38.96
2018-04-19T04:22:52.667Z,39.25
2018-04-19T04:23:52.680Z,39.34
2018-04-19T04:24:52.691Z,39.25
2018-04-19T04:25:52.703Z,39.62
2018-04-19T04:26:52.714Z,38.96
2018-04-19T04:27:52.726Z,39.32
2018-04-19T04:28:52.738Z,39.42
2018-04-19T04:29:52.749Z,38.94
2018-04-19T04:30:52.767Z,39.04
2018-04-19T04:31:52.772Z,39.06
2018-04-19T04:32:52.784Z,39.15
2018-04-19T04:33:52.797Z,39.06
2018-04-19T04:34:52.810Z,38.39
2018-04-19T04:35:52.821Z,37.82
2018-04-19T04:36:52.834Z,38.01
2018-04-19T04:37:52.843Z,37.92
2018-04-19T04:38:52.858Z,38.20
2018-04-19T04:39:52.870Z,38.37
2018-04-19T04:40:52.879Z,38.48
2018-04-19T04:41:52.890Z,38.58
2018-04-19T04:42:52.904Z,39.06
2018-04-19T04:43:52.915Z,39.13
2018-04-19T04:44:52.926Z,38.68
2018-04-19T04:45:52.939Z,38.58
2018-04-19T04:46:52.951Z,38.48
2018-04-19T04:47:53.029Z,38.20
2018-04-19T04:48:52.979Z,38.39
2018-04-19T04:49:52.985Z,38.29
2018-04-19T04:50:52.998Z,38.39
2018-04-19T04:51:53.009Z,38.10
2018-04-19T04:52:53.023Z,38.10
2018-04-19T04:53:53.033Z,38.96
2018-04-19T04:54:53.044Z,38.39
2018-04-19T04:55:53.056Z,38.58
2018-04-19T04:56:53.070Z,38.77
2018-04-19T04:57:53.079Z,38.96
2018-04-19T04:58:53.093Z,38.68
2018-04-19T04:59:53.103Z,38.68
2018-04-19T05:00:53.119Z,39.25
2018-04-19T05:01:53.127Z,39.06
2018-04-19T05:02:53.139Z,39.15
2018-04-19T05:03:53.154Z,39.06
2018-04-19T05:04:53.165Z,38.48
2018-04-19T05:05:53.177Z,39.15
2018-04-19T05:06:53.193Z,39.15
2018-04-19T05:07:53.201Z,38.58
2018-04-19T05:08:53.210Z,39.15
2018-04-19T05:09:53.223Z,38.87
2018-04-19T05:10:53.235Z,38.96
2018-04-19T05:11:53.248Z,38.96
2018-04-19T05:12:53.260Z,38.39
2018-04-19T05:13:53.275Z,38.10
2018-04-19T05:14:53.283Z,37.92
2018-04-19T05:15:53.295Z,38.01
2018-04-19T05:16:53.306Z,37.82
2018-04-19T05:17:53.317Z,37.92
2018-04-19T05:18:53.331Z,37.73
2018-04-19T05:19:53.348Z,37.82
2018-04-19T05:20:53.355Z,37.82
2018-04-19T05:21:53.367Z,38.10
2018-04-19T05:22:53.378Z,37.82
2018-04-19T05:23:53.388Z,37.92
2018-04-19T05:24:53.404Z,37.92
2018-04-19T05:25:53.414Z,38.29
2018-04-19T05:26:53.425Z,37.82
2018-04-19T05:27:53.436Z,37.92
2018-04-19T05:28:53.449Z,38.01
2018-04-19T05:29:53.459Z,37.92
2018-04-19T05:30:53.472Z,38.10
2018-04-19T05:31:53.487Z,38.96
2018-04-19T05:32:53.496Z,38.58
2018-04-19T05:33:53.510Z,38.39
2018-04-19T05:34:53.519Z,38.29
2018-04-19T05:35:53.531Z,38.96
2018-04-19T05:36:53.544Z,38.20
2018-04-19T05:37:53.560Z,37.92
2018-04-19T05:38:53.568Z,37.82
2018-04-19T05:39:53.578Z,38.20
2018-04-19T05:40:53.596Z,37.92
2018-04-19T05:41:53.602Z,38.29
2018-04-19T05:42:53.615Z,38.48
2018-04-19T05:43:53.627Z,38.58
2018-04-19T05:44:53.639Z,38.68
2018-04-19T05:45:53.651Z,38.87
2018-04-19T05:46:53.662Z,38.96
2018-04-19T05:47:53.673Z,38.48
2018-04-19T05:48:53.686Z,38.20
2018-04-19T05:49:53.696Z,37.82
2018-04-19T05:50:53.708Z,38.20
2018-04-19T05:51:53.724Z,37.25
2018-04-19T05:52:53.732Z,37.15
2018-04-19T05:53:53.743Z,38.01
2018-04-19T05:54:53.754Z,37.82
2018-04-19T05:55:53.767Z,37.82
2018-04-19T05:56:53.780Z,36.96
2018-04-19T05:57:53.791Z,36.58
2018-04-19T05:58:53.800Z,36.77
2018-04-19T05:59:53.814Z,36.77
2018-04-19T06:00:53.826Z,36.21
2018-04-19T06:01:53.838Z,36.49
2018-04-19T06:02:53.854Z,36.77
2018-04-19T06:03:53.861Z,36.58
2018-04-19T06:04:53.874Z,36.49
2018-04-19T06:05:53.885Z,36.49
2018-04-19T06:06:53.896Z,35.92
2018-04-19T06:07:53.909Z,36.51
2018-04-19T06:08:53.924Z,37.08
2018-04-19T06:09:53.932Z,35.84
2018-04-19T06:10:53.944Z,34.13
2018-04-19T06:11:53.955Z,33.65
2018-04-19T06:12:53.969Z,33.75
2018-04-19T06:13:53.983Z,34.61
2018-04-19T06:14:53.994Z,37.27
2018-04-19T06:15:54.004Z,38.60
2018-04-19T06:16:54.019Z,37.55
2018-04-19T06:17:54.027Z,36.22
2018-04-19T06:18:54.040Z,35.84
2018-04-19T06:19:54.053Z,35.65
2018-04-19T06:20:54.067Z,35.56
2018-04-19T06:21:54.077Z,34.89
2018-04-19T06:22:54.091Z,33.75
2018-04-19T06:23:54.101Z,36.04
2018-04-19T06:24:54.170Z,37.38
2018-04-19T06:25:54.127Z,36.24
2018-04-19T06:26:54.141Z,36.33
2018-04-19T06:27:54.153Z,35.19
2018-04-19T06:28:54.166Z,33.78
2018-04-19T06:29:54.177Z,32.45
2018-04-19T06:30:54.189Z,31.98
2018-04-19T06:31:54.202Z,31.31
2018-04-19T06:32:54.214Z,30.36
2018-04-19T06:33:54.232Z,29.88
2018-04-19T06:34:54.238Z,29.12
2018-04-19T06:35:54.289Z,29.98
2018-04-19T06:36:54.269Z,30.76
2018-04-19T06:37:54.276Z,29.79
2018-04-19T06:38:54.290Z,29.99
2018-04-19T06:39:54.302Z,29.90
2018-04-19T06:40:54.315Z,29.61
2018-04-19T06:41:54.327Z,30.57
2018-04-19T06:42:54.340Z,30.36
2018-04-19T06:43:54.354Z,30.28
2018-04-19T06:44:54.370Z,29.31
2018-04-19T06:45:54.378Z,29.52
2018-04-19T06:46:54.390Z,30.09
2018-04-19T06:47:54.404Z,30.47
2018-04-19T06:48:54.415Z,30.47
2018-04-19T06:49:54.429Z,28.47
2018-04-19T06:50:54.442Z,29.04
2018-04-19T06:51:54.454Z,29.99
2018-04-19T06:52:54.472Z,28.94
2018-04-19T06:53:54.478Z,27.99
2018-04-19T06:54:54.491Z,26.76
2018-04-19T06:55:54.506Z,27.33
2018-04-19T06:56:54.518Z,28.66
2018-04-19T06:57:54.529Z,28.66
2018-04-19T06:58:54.542Z,28.38
2018-04-19T06:59:54.556Z,27.80
2018-04-19T07:00:54.570Z,28.58
2018-04-19T07:01:54.582Z,27.61
2018-04-19T07:02:54.594Z,27.61
2018-04-19T07:03:54.607Z,27.99
2018-04-19T07:04:54.621Z,27.90
2018-04-19T07:05:54.632Z,28.75
2018-04-19T07:06:54.645Z,28.67
2018-04-19T07:07:54.659Z,28.10
2018-04-19T07:08:54.672Z,30.10
2018-04-19T07:09:54.683Z,30.00
2018-04-19T07:10:54.695Z,28.96
2018-04-19T07:11:54.710Z,28.77
2018-04-19T07:12:54.723Z,27.81
2018-04-19T07:13:54.738Z,27.53
2018-04-19T07:14:54.751Z,27.91
2018-04-19T07:15:54.762Z,27.81
2018-04-19T07:16:54.779Z,27.72
2018-04-19T07:17:54.787Z,27.72
2018-04-19T07:18:54.802Z,27.62
2018-04-19T07:19:54.824Z,26.67
2018-04-19T07:20:54.832Z,27.53
2018-04-19T07:21:54.842Z,26.67
2018-04-19T07:22:54.853Z,28.20
2018-04-19T07:23:54.866Z,28.67
2018-04-19T07:24:54.880Z,29.07
2018-04-19T07:25:54.892Z,27.81
2018-04-19T07:26:54.906Z,27.91
2018-04-19T07:27:54.919Z,27.92
2018-04-19T07:28:54.934Z,27.55
2018-04-19T07:29:54.945Z,26.77
2018-04-19T07:30:54.957Z,26.10
2018-04-19T07:31:54.973Z,26.67
2018-04-19T07:32:54.985Z,27.72
2018-04-19T07:33:55.000Z,27.26
2018-04-19T07:34:55.012Z,28.31
2018-04-19T07:35:55.026Z,27.64
2018-04-19T07:36:55.039Z,27.64
2018-04-19T07:37:55.051Z,27.55
2018-04-19T07:38:55.065Z,28.61
2018-04-19T07:39:55.079Z,28.42
2018-04-19T07:40:55.092Z,28.13
2018-04-19T07:41:55.102Z,27.66
2018-04-19T07:42:55.118Z,27.66
2018-04-19T07:43:55.133Z,27.56
2018-04-19T07:44:55.148Z,25.65
2018-04-19T07:45:55.159Z,25.46
2018-04-19T07:46:55.172Z,25.56
2018-04-19T07:47:55.185Z,26.22
2018-04-19T07:48:55.197Z,25.94
2018-04-19T07:49:55.212Z,25.27
2018-04-19T07:50:55.225Z,24.89
2018-04-19T07:51:55.239Z,23.54
2018-04-19T07:52:55.253Z,25.35
2018-04-19T07:53:55.267Z,25.74
2018-04-19T07:54:55.280Z,26.32
2018-04-19T07:55:55.293Z,26.32
2018-04-19T07:56:55.311Z,25.94
2018-04-19T07:57:55.401Z,26.42
2018-04-19T07:58:55.338Z,25.95
2018-04-19T07:59:55.349Z,24.69
2018-04-19T08:00:55.363Z,24.22
2018-04-19T08:01:55.379Z,23.74
2018-04-19T08:02:55.394Z,25.56
2018-04-19T08:03:55.405Z,24.41
2018-04-19T08:04:55.425Z,26.13
2018-04-19T08:05:55.436Z,24.69
2018-04-19T08:06:55.449Z,25.74
2018-04-19T08:07:55.465Z,27.09
2018-04-19T08:08:55.480Z,26.04
2018-04-19T08:09:55.492Z,26.04
2018-04-19T08:10:55.503Z,24.80
2018-04-19T08:11:55.520Z,24.90
2018-04-19T08:12:55.534Z,24.04
2018-04-19T08:13:55.550Z,25.28
2018-04-19T08:14:55.560Z,25.95
2018-04-19T08:15:55.576Z,25.76
2018-04-19T08:16:55.591Z,24.80
2018-04-19T08:17:55.607Z,24.33
2018-04-19T08:18:55.649Z,24.14
2018-04-19T08:19:55.632Z,25.39
2018-04-19T08:20:55.650Z,24.91
2018-04-19T08:21:55.664Z,23.75
2018-04-19T08:22:55.677Z,25.77
2018-04-19T08:23:55.693Z,26.63
2018-04-19T08:24:55.707Z,24.62
2018-04-19T08:25:55.720Z,24.14
2018-04-19T08:26:55.737Z,26.90
2018-04-19T08:27:55.748Z,26.25
2018-04-19T08:28:55.768Z,25.87
2018-04-19T08:29:55.778Z,26.06
2018-04-19T08:30:55.791Z,27.39
2018-04-19T08:31:55.807Z,25.96
2018-04-19T08:32:55.823Z,26.25
2018-04-19T08:33:55.836Z,26.44
2018-04-19T08:34:55.850Z,26.73
2018-04-19T08:35:55.869Z,26.73
2018-04-19T08:36:55.878Z,26.34
2018-04-19T08:37:55.894Z,23.96
2018-04-19T08:38:55.910Z,27.31
2018-04-19T08:39:55.922Z,25.79
2018-04-19T08:40:55.938Z,24.91
2018-04-19T08:41:55.951Z,27.71
2018-04-19T08:42:55.968Z,27.80
2018-04-19T08:43:55.984Z,26.09
2018-04-19T08:44:56.000Z,24.74
2018-04-19T08:45:56.016Z,25.12
2018-04-19T08:46:56.027Z,25.40
2018-04-19T08:47:56.043Z,24.53
2018-04-19T08:48:56.058Z,25.12
2018-04-19T08:49:56.326Z,23.67
2018-04-19T08:50:56.085Z,24.93
2018-04-19T08:51:56.102Z,23.67
2018-04-19T08:52:56.120Z,24.54
2018-04-19T08:53:56.131Z,25.79
2018-04-19T08:54:56.149Z,25.59
2018-04-19T08:55:56.164Z,26.55
2018-04-19T08:56:56.178Z,25.21
2018-04-19T08:57:56.191Z,26.85
2018-04-19T08:58:56.206Z,25.32
2018-04-19T08:59:56.223Z,25.79
2018-04-19T09:00:56.238Z,26.95
2018-04-19T09:01:56.253Z,25.42
2018-04-19T09:02:56.268Z,26.26
2018-04-19T09:03:56.284Z,26.66
2018-04-19T09:04:56.300Z,26.75
2018-04-19T09:05:56.315Z,26.39
2018-04-19T09:06:56.329Z,26.57
2018-04-19T09:07:56.380Z,25.81
2018-04-19T09:08:56.359Z,25.14
2018-04-19T09:09:56.373Z,24.85
2018-04-19T09:10:56.391Z,25.24
2018-04-19T09:11:56.406Z,25.42
2018-04-19T09:12:56.422Z,25.32
2018-04-19T09:13:56.437Z,24.74
2018-04-19T09:14:56.453Z,25.13
2018-04-19T09:15:56.469Z,24.46
2018-04-19T09:16:56.483Z,26.67
2018-04-19T09:17:56.497Z,26.40
2018-04-19T09:18:56.522Z,25.15
2018-04-19T09:19:56.530Z,25.84
2018-04-19T09:20:56.546Z,23.82
2018-04-19T09:21:56.560Z,23.72
2018-04-19T09:22:56.577Z,22.18
2018-04-19T09:23:56.591Z,23.90
2018-04-19T09:24:56.609Z,24.96
2018-04-19T09:25:56.622Z,22.75
2018-04-19T09:26:56.640Z,23.12
2018-04-19T09:27:56.657Z,23.80
2018-04-19T09:28:56.670Z,23.22
2018-04-19T09:29:56.687Z,24.19
2018-04-19T09:30:56.701Z,22.85
2018-04-19T09:31:56.719Z,23.33
2018-04-19T09:32:56.734Z,25.73
2018-04-19T09:33:56.750Z,24.58
2018-04-19T09:34:56.766Z,22.76
2018-04-19T09:35:56.783Z,22.96
2018-04-19T09:36:56.798Z,24.77
2018-04-19T09:37:56.814Z,24.50
2018-04-19T09:38:56.831Z,24.21
2018-04-19T09:39:56.845Z,22.76
2018-04-19T09:40:56.885Z,23.43
2018-04-19T09:41:56.880Z,23.53
2018-04-19T09:42:56.895Z,23.92
2018-04-19T09:43:56.913Z,22.97
2018-04-19T09:44:56.933Z,21.81
2018-04-19T09:45:56.943Z,22.68
2018-04-19T09:46:56.961Z,22.87
2018-04-19T09:47:56.977Z,21.51
2018-04-19T09:48:56.996Z,23.13
2018-04-19T09:49:57.010Z,25.54
2018-04-19T09:50:57.027Z,25.36
2018-04-19T09:51:57.099Z,26.33
2018-04-19T09:52:57.060Z,23.74
2018-04-19T09:53:57.232Z,21.83
2018-04-19T09:54:57.092Z,21.26
2018-04-19T09:55:57.109Z,23.37
2018-04-19T09:56:57.127Z,22.13
2018-04-19T09:57:57.147Z,22.03
2018-04-19T09:58:57.160Z,23.94
2018-04-19T09:59:57.179Z,22.89
2018-04-19T10:00:57.195Z,23.86
2018-04-19T10:01:57.210Z,21.94
2018-04-19T10:02:57.226Z,21.55
2018-04-19T10:03:57.243Z,21.36
2018-04-19T10:04:57.261Z,22.89
2018-04-19T10:05:57.281Z,21.06
2018-04-19T10:06:57.293Z,23.17
2018-04-19T10:07:57.329Z,22.88
2018-04-19T10:08:57.330Z,22.88
2018-04-19T10:09:57.344Z,24.60
2018-04-19T10:10:57.365Z,24.89
2018-04-19T10:11:57.383Z,25.19
2018-04-19T10:12:57.398Z,23.65
2018-04-19T10:13:57.416Z,24.71
2018-04-19T10:14:57.432Z,21.17
2018-04-19T10:15:57.483Z,20.50
2018-04-19T10:16:57.469Z,19.45
2018-04-19T10:17:57.489Z,22.99
2018-04-19T10:18:57.504Z,21.84
2018-04-19T10:19:57.521Z,21.25
2018-04-19T10:20:57.541Z,21.84
2018-04-19T10:21:57.556Z,20.88
2018-04-19T10:22:57.575Z,21.36
2018-04-19T10:23:57.591Z,22.61
2018-04-19T10:24:57.613Z,21.84
2018-04-19T10:25:57.627Z,21.45
2018-04-19T10:26:57.650Z,22.71
2018-04-19T10:27:57.662Z,20.59
2018-04-19T10:28:57.680Z,20.88
2018-04-19T10:29:57.696Z,24.54
2018-04-19T10:30:57.716Z,22.34
2018-04-19T10:31:57.732Z,20.23
2018-04-19T10:32:57.750Z,18.12
2018-04-19T10:33:57.770Z,21.28
2018-04-19T10:34:57.794Z,22.33
2018-04-19T10:35:57.806Z,21.47
2018-04-19T10:36:57.824Z,21.28
2018-04-19T10:37:57.839Z,19.17
2018-04-19T10:38:57.858Z,19.07
2018-04-19T10:39:57.879Z,20.81
2018-04-19T10:40:57.893Z,21.48
2018-04-19T10:41:57.912Z,18.78
2018-04-19T10:42:57.931Z,20.52
2018-04-19T10:43:57.950Z,20.90
2018-04-19T10:44:57.971Z,20.02
2018-04-19T10:45:57.982Z,21.56
2018-04-19T10:46:58.003Z,22.04
2018-04-19T10:47:58.021Z,20.61
2018-04-19T10:48:58.042Z,20.02
2018-04-19T10:49:58.061Z,20.31
2018-04-19T10:50:58.078Z,19.72
2018-04-19T10:51:58.096Z,22.91
2018-04-19T10:52:58.117Z,23.10
2018-04-19T10:53:58.136Z,19.37
2018-04-19T10:54:58.149Z,20.61
2018-04-19T10:55:58.169Z,20.14
2018-04-19T10:56:58.192Z,19.56
2018-04-19T10:57:58.206Z,19.46
2018-04-19T10:58:58.228Z,20.71
2018-04-19T10:59:58.244Z,20.14
2018-04-19T11:00:58.306Z,18.51
2018-04-19T11:01:58.280Z,18.04
2018-04-19T11:02:58.300Z,18.80
2018-04-19T11:03:58.319Z,17.17
2018-04-19T11:04:58.344Z,19.85
2018-04-19T11:05:58.356Z,21.50
2018-04-19T11:06:58.379Z,22.08
2018-04-19T11:07:58.396Z,19.38
2018-04-19T11:08:58.412Z,21.20
2018-04-19T11:09:58.430Z,18.43
2018-04-19T11:10:58.450Z,17.83
2018-04-19T11:11:58.472Z,20.62
2018-04-19T11:12:58.489Z,19.77
2018-04-19T11:13:58.507Z,18.04
2018-04-19T11:14:58.527Z,19.18
2018-04-19T11:15:58.564Z,20.90
2018-04-19T11:16:58.566Z,20.52
2018-04-19T11:17:58.587Z,21.28
2018-04-19T11:18:58.603Z,20.98
2018-04-19T11:19:58.621Z,19.06
2018-04-19T11:20:58.647Z,21.18
2018-04-19T11:21:58.659Z,20.79
2018-04-19T11:22:58.680Z,19.93
2018-04-19T11:23:58.698Z,20.32
2018-04-19T11:24:58.718Z,20.22
2018-04-19T11:25:58.735Z,20.12
2018-04-19T11:26:58.755Z,24.85
2018-04-19T11:27:58.774Z,23.22
2018-04-19T11:28:58.792Z,20.35
2018-04-19T11:29:58.811Z,21.11
2018-04-19T11:30:58.848Z,20.81
2018-04-19T11:31:58.849Z,21.97
2018-04-19T11:32:58.870Z,21.59
2018-04-19T11:33:58.894Z,19.58
2018-04-19T11:34:58.909Z,18.52
2018-04-19T11:35:58.930Z,19.38
2018-04-19T11:36:58.949Z,19.87
2018-04-19T11:37:58.966Z,18.91
2018-04-19T11:38:58.989Z,20.35
2018-04-19T11:39:59.005Z,20.44
2018-04-19T11:40:59.024Z,19.77
2018-04-19T11:41:59.045Z,20.15
2018-04-19T11:42:59.064Z,17.94
2018-04-19T11:43:59.085Z,19.38
2018-04-19T11:44:59.107Z,19.47
2018-04-19T11:45:59.122Z,18.49
2018-04-19T11:46:59.140Z,19.74
2018-04-19T11:47:59.206Z,18.88
2018-04-19T11:48:59.183Z,21.19
2018-04-19T11:49:59.201Z,20.04
2018-04-19T11:50:59.220Z,19.37
2018-04-19T11:51:59.238Z,19.47
2018-04-19T11:52:59.259Z,18.90
2018-04-19T11:53:59.279Z,18.90
2018-04-19T11:54:59.299Z,18.02
2018-04-19T11:55:59.318Z,19.08
2018-04-19T11:56:59.339Z,19.28
2018-04-19T11:57:59.356Z,19.57
2018-04-19T11:58:59.378Z,20.73
2018-04-19T11:59:59.397Z,18.99
2018-04-19T12:00:59.421Z,21.02
2018-04-19T12:01:59.436Z,18.42
2018-04-19T12:02:59.455Z,18.98
2018-04-19T12:03:59.474Z,19.07
2018-04-19T12:04:59.498Z,18.98
2018-04-19T12:05:59.514Z,19.26
2018-04-19T12:06:59.537Z,20.14
2018-04-19T12:07:59.556Z,20.92
2018-04-19T12:08:59.577Z,18.80
2018-04-19T12:09:59.595Z,18.89
2018-04-19T12:10:59.613Z,18.59
2018-04-19T12:11:59.634Z,20.14
2018-04-19T12:12:59.656Z,20.24
2018-04-19T12:13:59.673Z,19.48
2018-04-19T12:14:59.692Z,18.78
2018-04-19T12:15:59.714Z,20.81
2018-04-19T12:16:59.735Z,22.94
2018-04-19T12:17:59.755Z,18.71
2018-04-19T12:18:59.773Z,18.71
2018-04-19T12:19:59.791Z,18.99
2018-04-19T12:20:59.812Z,18.70
2018-04-19T12:21:59.829Z,20.62
2018-04-19T12:22:59.850Z,20.36
2018-04-19T12:23:59.870Z,18.63
2018-04-19T12:24:59.889Z,18.54
2018-04-19T12:25:59.909Z,17.27
2018-04-19T12:26:59.928Z,18.71
2018-04-19T12:27:59.957Z,19.11
2018-04-19T12:28:59.968Z,18.34
2018-04-19T12:29:59.993Z,17.76
2018-04-19T12:31:00.007Z,16.88
2018-04-19T12:32:00.031Z,18.51
2018-04-19T12:33:00.048Z,19.29
2018-04-19T12:34:00.068Z,19.68
2018-04-19T12:35:00.096Z,17.36
2018-04-19T12:36:00.111Z,18.14
2018-04-19T12:37:00.128Z,18.91
2018-04-19T12:38:00.148Z,17.96
2018-04-19T12:39:00.167Z,17.86
2018-04-19T12:40:00.194Z,19.21
2018-04-19T12:41:00.209Z,20.18
2018-04-19T12:42:00.228Z,17.41
2018-04-19T12:43:00.248Z,18.18
2018-04-19T12:44:00.269Z,16.33
2018-04-19T12:45:00.288Z,17.59
2018-04-19T12:46:00.311Z,17.88
2018-04-19T12:47:00.329Z,18.75
2018-04-19T12:48:00.355Z,17.31
2018-04-19T12:49:00.371Z,16.72
2018-04-19T12:50:00.391Z,17.11
2018-04-19T12:51:00.414Z,16.13
2018-04-19T12:52:00.438Z,17.19
2018-04-19T12:53:00.458Z,18.35